Strasburg, Illinois
Current Conditions -  °F | °C
As of 11:15 PM on Tuesday 25 Nov 2014 (Local Time) from K1H2 Reporting Station
Clear Clear  
Wind Chill: 24°   Ceiling: Unl
Heat Index: 24°   Visibility: 10mi
Dew Point: 22°   Wind: 0mph
Humidity: 89%   Direction: NA
Pressure: 30.18"   Gusts: NA
Location:  39.35°N, 88.62°W
Report Text: K1H2 260515Z AUTO 00000KT 10SM CLR M04/M06 A3018 RMK AO2 T10431058
Loading
Personal Weather Stations






























Interactive Weather Map New forecast layout! Learn more

10-Day Weather Forecast

Advertisements
Track Severe Weather on mobile